Honeoye Falls, New York
Current Conditions -  °F | °C
As of 4:54 PM on Sunday 23 Nov 2014 (Local Time) from KROC Reporting Station
Broken Clouds Broken Clouds  
Wind Chill: 10°   Ceiling: 11000
Heat Index: 10°   Visibility: 10mi
Dew Point:   Wind: 8mph
Humidity: 71%   Direction: 160°SSE
Pressure: 29.91"   Gusts: NA
Location:  42.95°N, 77.59°W
Report Text: KROC 232154Z 16007KT 10SM FEW060 BKN110 BKN150 10/05 A2991 RMK AO2 RAE2055 SLP134 P0000 T01000050
Loading
Personal Weather Stations






























Interactive Weather Map New forecast layout! Learn more

10-Day Weather Forecast

Advertisements
Track Severe Weather on mobile